sensor_id;sensor_type;location;lat;lon;timestamp;P1;durP1;ratioP1;P2;durP2;ratioP2
25479;SDS011;13393;49.378;8.686;2023-07-20T00:01:12;4.43;;;1.85;;
25479;SDS011;13393;49.378;8.686;2023-07-20T00:03:38;3.33;;;2.28;;
25479;SDS011;13393;49.378;8.686;2023-07-20T00:06:05;4.60;;;2.03;;
25479;SDS011;13393;49.378;8.686;2023-07-20T00:08:32;3.17;;;2.10;;
25479;SDS011;13393;49.378;8.686;2023-07-20T00:10:58;3.08;;;1.83;;
25479;SDS011;13393;49.378;8.686;2023-07-20T00:13:27;2.10;;;1.90;;
25479;SDS011;13393;49.378;8.686;2023-07-20T00:15:54;3.75;;;1.90;;
25479;SDS011;13393;49.378;8.686;2023-07-20T00:18:20;3.17;;;1.92;;
25479;SDS011;13393;49.378;8.686;2023-07-20T00:20:47;2.30;;;2.00;;
25479;SDS011;13393;49.378;8.686;2023-07-20T00:23:13;3.50;;;1.85;;
25479;SDS011;13393;49.378;8.686;2023-07-20T00:25:40;4.88;;;1.98;;
25479;SDS011;13393;49.378;8.686;2023-07-20T00:28:07;3.10;;;1.95;;
25479;SDS011;13393;49.378;8.686;2023-07-20T00:30:35;2.83;;;1.80;;
25479;SDS011;13393;49.378;8.686;2023-07-20T00:33:01;4.30;;;2.25;;
25479;SDS011;13393;49.378;8.686;2023-07-20T00:35:28;3.08;;;2.20;;
25479;SDS011;13393;49.378;8.686;2023-07-20T00:37:54;4.30;;;2.65;;
25479;SDS011;13393;49.378;8.686;2023-07-20T00:40:21;2.58;;;2.00;;
25479;SDS011;13393;49.378;8.686;2023-07-20T00:42:47;3.70;;;2.17;;
25479;SDS011;13393;49.378;8.686;2023-07-20T00:45:14;5.10;;;2.35;;
25479;SDS011;13393;49.378;8.686;2023-07-20T00:47:42;2.75;;;2.15;;
25479;SDS011;13393;49.378;8.686;2023-07-20T00:50:08;3.58;;;2.17;;
25479;SDS011;13393;49.378;8.686;2023-07-20T00:52:35;3.13;;;2.08;;
25479;SDS011;13393;49.378;8.686;2023-07-20T00:55:04;4.57;;;2.30;;
25479;SDS011;13393;49.378;8.686;2023-07-20T00:57:30;9.20;;;2.38;;
25479;SDS011;13393;49.378;8.686;2023-07-20T00:59:57;6.38;;;2.22;;
25479;SDS011;13393;49.378;8.686;2023-07-20T01:02:26;5.90;;;2.22;;
25479;SDS011;13393;49.378;8.686;2023-07-20T01:04:54;2.97;;;2.10;;
25479;SDS011;13393;49.378;8.686;2023-07-20T01:07:23;2.63;;;2.20;;
25479;SDS011;13393;49.378;8.686;2023-07-20T01:09:56;5.57;;;2.35;;
25479;SDS011;13393;49.378;8.686;2023-07-20T01:12:26;3.80;;;2.38;;
25479;SDS011;13393;49.378;8.686;2023-07-20T01:14:55;3.90;;;2.25;;
25479;SDS011;13393;49.378;8.686;2023-07-20T01:17:21;5.03;;;2.30;;
25479;SDS011;13393;49.378;8.686;2023-07-20T01:19:49;5.10;;;2.40;;
25479;SDS011;13393;49.378;8.686;2023-07-20T01:22:21;5.63;;;2.42;;
25479;SDS011;13393;49.378;8.686;2023-07-20T01:25:05;6.68;;;2.60;;
25479;SDS011;13393;49.378;8.686;2023-07-20T01:27:36;4.15;;;2.60;;
25479;SDS011;13393;49.378;8.686;2023-07-20T01:32:49;2.40;;;1.92;;
25479;SDS011;13393;49.378;8.686;2023-07-20T01:35:15;4.35;;;2.47;;
25479;SDS011;13393;49.378;8.686;2023-07-20T01:37:42;4.15;;;2.15;;
25479;SDS011;13393;49.378;8.686;2023-07-20T01:40:10;6.15;;;2.85;;
25479;SDS011;13393;49.378;8.686;2023-07-20T01:42:36;4.90;;;2.10;;
25479;SDS011;13393;49.378;8.686;2023-07-20T01:45:03;7.05;;;2.38;;
25479;SDS011;13393;49.378;8.686;2023-07-20T01:47:31;3.97;;;1.95;;
25479;SDS011;13393;49.378;8.686;2023-07-20T01:49:59;3.75;;;2.40;;
25479;SDS011;13393;49.378;8.686;2023-07-20T01:52:26;4.85;;;2.55;;
25479;SDS011;13393;49.378;8.686;2023-07-20T01:54:52;4.07;;;2.40;;
25479;SDS011;13393;49.378;8.686;2023-07-20T01:57:18;5.15;;;2.30;;
25479;SDS011;13393;49.378;8.686;2023-07-20T01:59:45;3.60;;;2.15;;
25479;SDS011;13393;49.378;8.686;2023-07-20T02:02:12;3.33;;;2.13;;
25479;SDS011;13393;49.378;8.686;2023-07-20T02:04:38;4.18;;;2.65;;
25479;SDS011;13393;49.378;8.686;2023-07-20T02:07:06;5.90;;;2.75;;
25479;SDS011;13393;49.378;8.686;2023-07-20T02:09:33;3.75;;;2.20;;
25479;SDS011;13393;49.378;8.686;2023-07-20T02:11:59;3.05;;;2.45;;
25479;SDS011;13393;49.378;8.686;2023-07-20T02:14:26;3.88;;;2.47;;
25479;SDS011;13393;49.378;8.686;2023-07-20T02:16:52;3.53;;;2.15;;
25479;SDS011;13393;49.378;8.686;2023-07-20T02:19:24;3.30;;;2.22;;
25479;SDS011;13393;49.378;8.686;2023-07-20T02:21:51;3.20;;;2.03;;
25479;SDS011;13393;49.378;8.686;2023-07-20T02:24:19;4.85;;;1.88;;
25479;SDS011;13393;49.378;8.686;2023-07-20T02:26:46;2.28;;;1.92;;
25479;SDS011;13393;49.378;8.686;2023-07-20T02:29:12;3.97;;;2.38;;
25479;SDS011;13393;49.378;8.686;2023-07-20T02:31:39;4.35;;;2.53;;
25479;SDS011;13393;49.378;8.686;2023-07-20T02:34:08;4.32;;;2.25;;
25479;SDS011;13393;49.378;8.686;2023-07-20T02:36:34;2.70;;;2.25;;
25479;SDS011;13393;49.378;8.686;2023-07-20T02:39:01;4.47;;;2.15;;
25479;SDS011;13393;49.378;8.686;2023-07-20T02:41:30;2.75;;;1.98;;
25479;SDS011;13393;49.378;8.686;2023-07-20T02:43:57;5.05;;;2.58;;
25479;SDS011;13393;49.378;8.686;2023-07-20T02:46:23;4.90;;;2.15;;
25479;SDS011;13393;49.378;8.686;2023-07-20T02:48:49;4.80;;;2.40;;
25479;SDS011;13393;49.378;8.686;2023-07-20T02:51:16;4.30;;;2.60;;
25479;SDS011;13393;49.378;8.686;2023-07-20T02:53:42;5.40;;;2.60;;
25479;SDS011;13393;49.378;8.686;2023-07-20T02:56:09;3.38;;;2.45;;
25479;SDS011;13393;49.378;8.686;2023-07-20T02:58:39;3.72;;;2.15;;
25479;SDS011;13393;49.378;8.686;2023-07-20T03:01:09;3.53;;;2.35;;
25479;SDS011;13393;49.378;8.686;2023-07-20T03:03:37;3.40;;;2.50;;
25479;SDS011;13393;49.378;8.686;2023-07-20T03:06:03;3.30;;;2.50;;
25479;SDS011;13393;49.378;8.686;2023-07-20T03:08:30;5.13;;;2.40;;
25479;SDS011;13393;49.378;8.686;2023-07-20T03:10:56;4.10;;;2.47;;
25479;SDS011;13393;49.378;8.686;2023-07-20T03:13:23;4.75;;;2.55;;
25479;SDS011;13393;49.378;8.686;2023-07-20T03:15:52;4.75;;;2.50;;
25479;SDS011;13393;49.378;8.686;2023-07-20T03:18:19;5.35;;;2.55;;
25479;SDS011;13393;49.378;8.686;2023-07-20T03:20:46;4.78;;;2.25;;
25479;SDS011;13393;49.378;8.686;2023-07-20T03:23:13;4.22;;;2.40;;
25479;SDS011;13393;49.378;8.686;2023-07-20T03:25:40;4.63;;;2.28;;
25479;SDS011;13393;49.378;8.686;2023-07-20T03:28:06;5.97;;;2.55;;
25479;SDS011;13393;49.378;8.686;2023-07-20T03:30:33;2.70;;;2.40;;
25479;SDS011;13393;49.378;8.686;2023-07-20T03:33:01;3.55;;;2.10;;
25479;SDS011;13393;49.378;8.686;2023-07-20T03:35:28;4.65;;;2.30;;
25479;SDS011;13393;49.378;8.686;2023-07-20T03:37:54;5.47;;;2.53;;
25479;SDS011;13393;49.378;8.686;2023-07-20T03:40:21;3.75;;;2.35;;
25479;SDS011;13393;49.378;8.686;2023-07-20T03:42:47;4.32;;;2.67;;
25479;SDS011;13393;49.378;8.686;2023-07-20T03:45:14;4.22;;;2.60;;
25479;SDS011;13393;49.378;8.686;2023-07-20T03:47:41;5.50;;;2.53;;
25479;SDS011;13393;49.378;8.686;2023-07-20T03:50:11;7.78;;;2.35;;
25479;SDS011;13393;49.378;8.686;2023-07-20T03:52:37;4.65;;;2.60;;
25479;SDS011;13393;49.378;8.686;2023-07-20T03:55:04;2.67;;;2.40;;
25479;SDS011;13393;49.378;8.686;2023-07-20T03:57:31;5.30;;;2.30;;
25479;SDS011;13393;49.378;8.686;2023-07-20T03:59:58;4.75;;;2.50;;
25479;SDS011;13393;49.378;8.686;2023-07-20T04:02:25;5.38;;;2.40;;
25479;SDS011;13393;49.378;8.686;2023-07-20T04:04:51;5.20;;;2.47;;
25479;SDS011;13393;49.378;8.686;2023-07-20T04:07:19;7.78;;;2.97;;
25479;SDS011;13393;49.378;8.686;2023-07-20T04:09:46;6.00;;;2.58;;
25479;SDS011;13393;49.378;8.686;2023-07-20T04:12:12;5.05;;;2.65;;
25479;SDS011;13393;49.378;8.686;2023-07-20T04:14:40;3.33;;;2.30;;
25479;SDS011;13393;49.378;8.686;2023-07-20T04:17:07;5.40;;;2.50;;
25479;SDS011;13393;49.378;8.686;2023-07-20T04:19:33;4.28;;;2.10;;
25479;SDS011;13393;49.378;8.686;2023-07-20T04:22:00;3.72;;;2.50;;
25479;SDS011;13393;49.378;8.686;2023-07-20T04:24:29;4.53;;;1.92;;
25479;SDS011;13393;49.378;8.686;2023-07-20T04:26:57;6.03;;;2.70;;
25479;SDS011;13393;49.378;8.686;2023-07-20T04:29:24;5.80;;;2.40;;
25479;SDS011;13393;49.378;8.686;2023-07-20T04:31:50;4.43;;;2.38;;
25479;SDS011;13393;49.378;8.686;2023-07-20T04:34:17;4.40;;;2.55;;
25479;SDS011;13393;49.378;8.686;2023-07-20T04:36:44;4.65;;;2.45;;
25479;SDS011;13393;49.378;8.686;2023-07-20T04:39:11;4.82;;;2.63;;
25479;SDS011;13393;49.378;8.686;2023-07-20T04:41:39;2.85;;;2.10;;
25479;SDS011;13393;49.378;8.686;2023-07-20T04:44:06;3.08;;;2.30;;
25479;SDS011;13393;49.378;8.686;2023-07-20T04:46:34;4.95;;;2.30;;
25479;SDS011;13393;49.378;8.686;2023-07-20T04:49:00;7.47;;;2.50;;
25479;SDS011;13393;49.378;8.686;2023-07-20T04:51:27;3.03;;;2.22;;
25479;SDS011;13393;49.378;8.686;2023-07-20T04:53:55;9.23;;;2.70;;
25479;SDS011;13393;49.378;8.686;2023-07-20T04:56:23;14.40;;;2.95;;
25479;SDS011;13393;49.378;8.686;2023-07-20T04:58:51;3.58;;;2.10;;
25479;SDS011;13393;49.378;8.686;2023-07-20T05:01:17;4.57;;;2.20;;
25479;SDS011;13393;49.378;8.686;2023-07-20T05:03:44;3.83;;;2.03;;
25479;SDS011;13393;49.378;8.686;2023-07-20T05:06:10;3.80;;;2.00;;
25479;SDS011;13393;49.378;8.686;2023-07-20T05:08:37;5.03;;;2.67;;
25479;SDS011;13393;49.378;8.686;2023-07-20T05:11:05;3.17;;;2.20;;
25479;SDS011;13393;49.378;8.686;2023-07-20T05:13:32;8.30;;;2.42;;
25479;SDS011;13393;49.378;8.686;2023-07-20T05:16:00;4.90;;;2.35;;
25479;SDS011;13393;49.378;8.686;2023-07-20T05:18:26;6.80;;;2.40;;
25479;SDS011;13393;49.378;8.686;2023-07-20T05:20:54;5.95;;;2.80;;
25479;SDS011;13393;49.378;8.686;2023-07-20T05:23:21;4.50;;;2.40;;
25479;SDS011;13393;49.378;8.686;2023-07-20T05:25:53;2.97;;;2.30;;
25479;SDS011;13393;49.378;8.686;2023-07-20T05:28:21;6.28;;;2.53;;
25479;SDS011;13393;49.378;8.686;2023-07-20T05:30:48;4.00;;;2.05;;
25479;SDS011;13393;49.378;8.686;2023-07-20T05:33:18;5.80;;;2.63;;
25479;SDS011;13393;49.378;8.686;2023-07-20T05:35:44;4.18;;;2.33;;
25479;SDS011;13393;49.378;8.686;2023-07-20T05:38:11;6.35;;;2.30;;
25479;SDS011;13393;49.378;8.686;2023-07-20T05:40:38;3.22;;;2.13;;
25479;SDS011;13393;49.378;8.686;2023-07-20T05:43:05;5.32;;;2.05;;
25479;SDS011;13393;49.378;8.686;2023-07-20T05:45:31;5.13;;;2.25;;
25479;SDS011;13393;49.378;8.686;2023-07-20T05:47:58;4.32;;;2.30;;
25479;SDS011;13393;49.378;8.686;2023-07-20T05:50:26;2.83;;;1.90;;
25479;SDS011;13393;49.378;8.686;2023-07-20T05:52:53;3.08;;;2.20;;
25479;SDS011;13393;49.378;8.686;2023-07-20T05:55:20;6.03;;;2.47;;
25479;SDS011;13393;49.378;8.686;2023-07-20T05:57:47;5.10;;;2.20;;
25479;SDS011;13393;49.378;8.686;2023-07-20T06:00:15;5.15;;;2.60;;
25479;SDS011;13393;49.378;8.686;2023-07-20T06:02:44;7.85;;;2.40;;
25479;SDS011;13393;49.378;8.686;2023-07-20T06:05:11;5.32;;;2.42;;
25479;SDS011;13393;49.378;8.686;2023-07-20T06:07:39;5.85;;;2.63;;
25479;SDS011;13393;49.378;8.686;2023-07-20T06:10:06;2.95;;;2.38;;
25479;SDS011;13393;49.378;8.686;2023-07-20T06:12:35;5.03;;;2.45;;
25479;SDS011;13393;49.378;8.686;2023-07-20T06:15:01;3.28;;;2.30;;
25479;SDS011;13393;49.378;8.686;2023-07-20T06:17:28;3.67;;;2.30;;
25479;SDS011;13393;49.378;8.686;2023-07-20T06:19:55;5.78;;;2.20;;
25479;SDS011;13393;49.378;8.686;2023-07-20T06:22:22;4.88;;;2.50;;
25479;SDS011;13393;49.378;8.686;2023-07-20T06:24:50;4.68;;;2.28;;
25479;SDS011;13393;49.378;8.686;2023-07-20T06:27:17;6.32;;;2.40;;
25479;SDS011;13393;49.378;8.686;2023-07-20T06:29:44;2.70;;;2.03;;
25479;SDS011;13393;49.378;8.686;2023-07-20T06:32:10;5.85;;;2.20;;
25479;SDS011;13393;49.378;8.686;2023-07-20T06:34:38;3.38;;;2.05;;
25479;SDS011;13393;49.378;8.686;2023-07-20T06:37:05;2.97;;;2.10;;
25479;SDS011;13393;49.378;8.686;2023-07-20T06:39:31;5.07;;;2.40;;
25479;SDS011;13393;49.378;8.686;2023-07-20T06:41:59;4.43;;;2.17;;
25479;SDS011;13393;49.378;8.686;2023-07-20T06:44:26;6.22;;;2.50;;
25479;SDS011;13393;49.378;8.686;2023-07-20T06:46:52;7.65;;;2.50;;
25479;SDS011;13393;49.378;8.686;2023-07-20T06:49:25;3.63;;;2.40;;
25479;SDS011;13393;49.378;8.686;2023-07-20T06:51:52;4.40;;;2.60;;
25479;SDS011;13393;49.378;8.686;2023-07-20T06:54:22;5.03;;;2.42;;
25479;SDS011;13393;49.378;8.686;2023-07-20T06:56:49;5.07;;;2.42;;
25479;SDS011;13393;49.378;8.686;2023-07-20T06:59:17;4.20;;;2.47;;
25479;SDS011;13393;49.378;8.686;2023-07-20T07:01:43;5.50;;;2.22;;
25479;SDS011;13393;49.378;8.686;2023-07-20T07:04:11;5.15;;;2.20;;
25479;SDS011;13393;49.378;8.686;2023-07-20T07:06:38;8.65;;;2.70;;
25479;SDS011;13393;49.378;8.686;2023-07-20T07:09:05;5.75;;;2.50;;
25479;SDS011;13393;49.378;8.686;2023-07-20T07:11:33;8.10;;;2.92;;
25479;SDS011;13393;49.378;8.686;2023-07-20T07:13:59;6.45;;;2.15;;
25479;SDS011;13393;49.378;8.686;2023-07-20T07:16:28;6.50;;;2.67;;
25479;SDS011;13393;49.378;8.686;2023-07-20T07:18:55;3.53;;;2.40;;
25479;SDS011;13393;49.378;8.686;2023-07-20T07:21:22;7.70;;;2.95;;
25479;SDS011;13393;49.378;8.686;2023-07-20T07:23:48;2.42;;;1.95;;
25479;SDS011;13393;49.378;8.686;2023-07-20T07:26:18;3.70;;;2.60;;
25479;SDS011;13393;49.378;8.686;2023-07-20T07:28:44;4.15;;;2.40;;
25479;SDS011;13393;49.378;8.686;2023-07-20T07:31:11;4.10;;;2.03;;
25479;SDS011;13393;49.378;8.686;2023-07-20T07:33:39;5.15;;;2.42;;
25479;SDS011;13393;49.378;8.686;2023-07-20T07:36:06;5.53;;;2.47;;
25479;SDS011;13393;49.378;8.686;2023-07-20T07:38:32;3.75;;;2.28;;
25479;SDS011;13393;49.378;8.686;2023-07-20T07:40:59;3.30;;;2.08;;
25479;SDS011;13393;49.378;8.686;2023-07-20T07:43:25;3.97;;;2.65;;
25479;SDS011;13393;49.378;8.686;2023-07-20T07:45:53;9.15;;;2.47;;
25479;SDS011;13393;49.378;8.686;2023-07-20T07:48:20;4.03;;;2.28;;
25479;SDS011;13393;49.378;8.686;2023-07-20T07:50:49;5.10;;;2.17;;
25479;SDS011;13393;49.378;8.686;2023-07-20T07:53:16;6.18;;;2.28;;
25479;SDS011;13393;49.378;8.686;2023-07-20T07:55:43;4.50;;;2.00;;
25479;SDS011;13393;49.378;8.686;2023-07-20T07:58:09;2.58;;;1.55;;
25479;SDS011;13393;49.378;8.686;2023-07-20T08:00:36;4.10;;;2.17;;
25479;SDS011;13393;49.378;8.686;2023-07-20T08:03:03;12.55;;;3.25;;
25479;SDS011;13393;49.378;8.686;2023-07-20T08:05:30;4.55;;;1.83;;
25479;SDS011;13393;49.378;8.686;2023-07-20T08:07:58;4.18;;;1.77;;
25479;SDS011;13393;49.378;8.686;2023-07-20T08:10:25;4.43;;;2.40;;
25479;SDS011;13393;49.378;8.686;2023-07-20T08:12:52;3.15;;;1.83;;
25479;SDS011;13393;49.378;8.686;2023-07-20T08:15:18;4.00;;;1.65;;
25479;SDS011;13393;49.378;8.686;2023-07-20T08:17:45;3.90;;;2.10;;
25479;SDS011;13393;49.378;8.686;2023-07-20T08:20:13;5.20;;;1.95;;
25479;SDS011;13393;49.378;8.686;2023-07-20T08:22:41;6.22;;;1.83;;
25479;SDS011;13393;49.378;8.686;2023-07-20T08:25:10;2.65;;;1.95;;
25479;SDS011;13393;49.378;8.686;2023-07-20T08:27:36;5.88;;;2.00;;
25479;SDS011;13393;49.378;8.686;2023-07-20T08:30:04;7.15;;;1.90;;
25479;SDS011;13393;49.378;8.686;2023-07-20T08:32:32;4.53;;;1.63;;
25479;SDS011;13393;49.378;8.686;2023-07-20T08:34:59;3.22;;;1.83;;
25479;SDS011;13393;49.378;8.686;2023-07-20T08:37:27;4.78;;;1.80;;
25479;SDS011;13393;49.378;8.686;2023-07-20T08:39:54;3.33;;;1.88;;
25479;SDS011;13393;49.378;8.686;2023-07-20T08:42:22;2.42;;;1.73;;
25479;SDS011;13393;49.378;8.686;2023-07-20T08:44:48;3.53;;;1.88;;
25479;SDS011;13393;49.378;8.686;2023-07-20T08:47:16;3.83;;;1.83;;
25479;SDS011;13393;49.378;8.686;2023-07-20T08:49:42;2.40;;;1.60;;
25479;SDS011;13393;49.378;8.686;2023-07-20T08:52:09;1.73;;;1.42;;
25479;SDS011;13393;49.378;8.686;2023-07-20T08:54:36;3.58;;;1.98;;
25479;SDS011;13393;49.378;8.686;2023-07-20T08:57:03;5.57;;;1.80;;
25479;SDS011;13393;49.378;8.686;2023-07-20T08:59:31;6.07;;;1.77;;
25479;SDS011;13393;49.378;8.686;2023-07-20T09:01:59;6.20;;;1.92;;
25479;SDS011;13393;49.378;8.686;2023-07-20T09:04:28;2.08;;;1.58;;
25479;SDS011;13393;49.378;8.686;2023-07-20T09:06:57;3.03;;;1.73;;
25479;SDS011;13393;49.378;8.686;2023-07-20T09:09:24;3.20;;;1.83;;
25479;SDS011;13393;49.378;8.686;2023-07-20T09:11:51;7.63;;;1.63;;
25479;SDS011;13393;49.378;8.686;2023-07-20T09:14:17;1.92;;;1.70;;
25479;SDS011;13393;49.378;8.686;2023-07-20T09:16:48;2.55;;;1.63;;
25479;SDS011;13393;49.378;8.686;2023-07-20T09:19:15;5.20;;;1.50;;
25479;SDS011;13393;49.378;8.686;2023-07-20T09:21:44;6.15;;;2.05;;
25479;SDS011;13393;49.378;8.686;2023-07-20T09:24:10;2.80;;;1.70;;
25479;SDS011;13393;49.378;8.686;2023-07-20T09:26:40;2.85;;;1.60;;
25479;SDS011;13393;49.378;8.686;2023-07-20T09:29:07;2.58;;;1.77;;
25479;SDS011;13393;49.378;8.686;2023-07-20T09:31:33;2.60;;;1.48;;
25479;SDS011;13393;49.378;8.686;2023-07-20T09:34:01;3.00;;;1.60;;
25479;SDS011;13393;49.378;8.686;2023-07-20T09:36:28;2.00;;;1.50;;
25479;SDS011;13393;49.378;8.686;2023-07-20T09:38:56;2.15;;;1.55;;
25479;SDS011;13393;49.378;8.686;2023-07-20T09:41:25;3.20;;;1.83;;
25479;SDS011;13393;49.378;8.686;2023-07-20T09:43:51;2.60;;;1.50;;
25479;SDS011;13393;49.378;8.686;2023-07-20T09:46:18;4.80;;;1.65;;
25479;SDS011;13393;49.378;8.686;2023-07-20T09:48:51;5.15;;;1.40;;
25479;SDS011;13393;49.378;8.686;2023-07-20T09:51:19;3.10;;;1.30;;
25479;SDS011;13393;49.378;8.686;2023-07-20T09:53:47;3.33;;;1.50;;
25479;SDS011;13393;49.378;8.686;2023-07-20T09:56:15;3.13;;;1.65;;
25479;SDS011;13393;49.378;8.686;2023-07-20T09:58:42;2.75;;;1.80;;
25479;SDS011;13393;49.378;8.686;2023-07-20T10:01:09;4.35;;;1.50;;
25479;SDS011;13393;49.378;8.686;2023-07-20T10:03:37;2.10;;;1.55;;
25479;SDS011;13393;49.378;8.686;2023-07-20T10:06:05;6.00;;;1.88;;
25479;SDS011;13393;49.378;8.686;2023-07-20T10:08:37;3.53;;;1.67;;
25479;SDS011;13393;49.378;8.686;2023-07-20T10:11:04;2.17;;;1.40;;
25479;SDS011;13393;49.378;8.686;2023-07-20T10:13:31;3.58;;;1.65;;
25479;SDS011;13393;49.378;8.686;2023-07-20T10:15:59;3.33;;;1.65;;
25479;SDS011;13393;49.378;8.686;2023-07-20T10:18:29;2.92;;;1.50;;
25479;SDS011;13393;49.378;8.686;2023-07-20T10:20:56;2.25;;;1.50;;
25479;SDS011;13393;49.378;8.686;2023-07-20T10:23:23;4.55;;;1.70;;
25479;SDS011;13393;49.378;8.686;2023-07-20T10:25:51;7.07;;;1.80;;
25479;SDS011;13393;49.378;8.686;2023-07-20T10:28:19;1.80;;;1.13;;
25479;SDS011;13393;49.378;8.686;2023-07-20T10:30:48;5.10;;;2.03;;
25479;SDS011;13393;49.378;8.686;2023-07-20T10:33:15;2.80;;;1.40;;
25479;SDS011;13393;49.378;8.686;2023-07-20T10:35:50;2.75;;;1.38;;
25479;SDS011;13393;49.378;8.686;2023-07-20T10:38:17;2.63;;;1.63;;
25479;SDS011;13393;49.378;8.686;2023-07-20T10:40:57;1.50;;;1.40;;
25479;SDS011;13393;49.378;8.686;2023-07-20T10:43:23;4.20;;;2.28;;
25479;SDS011;13393;49.378;8.686;2023-07-20T10:45:51;3.10;;;1.70;;
25479;SDS011;13393;49.378;8.686;2023-07-20T10:48:19;3.05;;;1.88;;
25479;SDS011;13393;49.378;8.686;2023-07-20T10:50:46;3.00;;;1.63;;
25479;SDS011;13393;49.378;8.686;2023-07-20T10:53:13;3.28;;;1.65;;
25479;SDS011;13393;49.378;8.686;2023-07-20T10:55:40;4.38;;;1.80;;
25479;SDS011;13393;49.378;8.686;2023-07-20T10:58:09;2.15;;;1.42;;
25479;SDS011;13393;49.378;8.686;2023-07-20T11:00:36;2.30;;;1.30;;
25479;SDS011;13393;49.378;8.686;2023-07-20T11:03:02;2.38;;;1.35;;
25479;SDS011;13393;49.378;8.686;2023-07-20T11:05:33;5.60;;;1.48;;
25479;SDS011;13393;49.378;8.686;2023-07-20T11:08:00;2.78;;;1.35;;
25479;SDS011;13393;49.378;8.686;2023-07-20T11:10:28;2.90;;;1.45;;
25479;SDS011;13393;49.378;8.686;2023-07-20T11:16:04;4.07;;;1.85;;
25479;SDS011;13393;49.378;8.686;2023-07-20T11:18:32;3.40;;;1.60;;
25479;SDS011;13393;49.378;8.686;2023-07-20T11:21:06;3.33;;;1.50;;
25479;SDS011;13393;49.378;8.686;2023-07-20T11:23:35;1.48;;;1.15;;
25479;SDS011;13393;49.378;8.686;2023-07-20T11:26:04;3.85;;;1.23;;
25479;SDS011;13393;49.378;8.686;2023-07-20T11:28:30;1.90;;;1.40;;
25479;SDS011;13393;49.378;8.686;2023-07-20T11:30:56;3.42;;;1.60;;
25479;SDS011;13393;49.378;8.686;2023-07-20T11:33:24;2.28;;;1.63;;
25479;SDS011;13393;49.378;8.686;2023-07-20T11:35:51;3.63;;;1.77;;
25479;SDS011;13393;49.378;8.686;2023-07-20T11:38:18;1.65;;;1.40;;
25479;SDS011;13393;49.378;8.686;2023-07-20T11:40:46;2.78;;;1.55;;
25479;SDS011;13393;49.378;8.686;2023-07-20T11:43:13;2.03;;;1.55;;
25479;SDS011;13393;49.378;8.686;2023-07-20T11:45:41;4.03;;;1.83;;
25479;SDS011;13393;49.378;8.686;2023-07-20T11:48:13;2.38;;;1.40;;
25479;SDS011;13393;49.378;8.686;2023-07-20T11:50:43;2.92;;;1.25;;
25479;SDS011;13393;49.378;8.686;2023-07-20T11:53:10;3.47;;;1.50;;
25479;SDS011;13393;49.378;8.686;2023-07-20T11:55:36;3.42;;;1.73;;
25479;SDS011;13393;49.378;8.686;2023-07-20T11:58:04;3.72;;;1.85;;
25479;SDS011;13393;49.378;8.686;2023-07-20T12:00:31;3.72;;;1.60;;
25479;SDS011;13393;49.378;8.686;2023-07-20T12:02:58;1.40;;;1.30;;
25479;SDS011;13393;49.378;8.686;2023-07-20T12:05:24;1.58;;;1.40;;
25479;SDS011;13393;49.378;8.686;2023-07-20T12:07:55;4.15;;;1.60;;
25479;SDS011;13393;49.378;8.686;2023-07-20T12:10:25;1.30;;;1.20;;
25479;SDS011;13393;49.378;8.686;2023-07-20T12:12:52;2.55;;;1.70;;
25479;SDS011;13393;49.378;8.686;2023-07-20T12:15:20;5.85;;;1.50;;
25479;SDS011;13393;49.378;8.686;2023-07-20T12:17:49;1.88;;;1.40;;
25479;SDS011;13393;49.378;8.686;2023-07-20T12:20:24;2.97;;;1.52;;
25479;SDS011;13393;49.378;8.686;2023-07-20T12:22:52;3.47;;;1.45;;
25479;SDS011;13393;49.378;8.686;2023-07-20T12:25:19;2.88;;;1.63;;
25479;SDS011;13393;49.378;8.686;2023-07-20T12:27:47;3.67;;;1.55;;
25479;SDS011;13393;49.378;8.686;2023-07-20T12:30:14;3.67;;;1.50;;
25479;SDS011;13393;49.378;8.686;2023-07-20T12:32:42;2.58;;;1.80;;
25479;SDS011;13393;49.378;8.686;2023-07-20T12:35:08;2.38;;;1.38;;
25479;SDS011;13393;49.378;8.686;2023-07-20T12:37:36;3.35;;;1.80;;
25479;SDS011;13393;49.378;8.686;2023-07-20T12:40:06;1.75;;;1.42;;
25479;SDS011;13393;49.378;8.686;2023-07-20T12:42:35;1.65;;;1.50;;
25479;SDS011;13393;49.378;8.686;2023-07-20T12:45:02;2.40;;;1.20;;
25479;SDS011;13393;49.378;8.686;2023-07-20T12:47:29;3.13;;;1.50;;
25479;SDS011;13393;49.378;8.686;2023-07-20T12:49:56;3.72;;;1.48;;
25479;SDS011;13393;49.378;8.686;2023-07-20T12:52:22;2.25;;;1.50;;
25479;SDS011;13393;49.378;8.686;2023-07-20T12:54:49;1.45;;;1.30;;
25479;SDS011;13393;49.378;8.686;2023-07-20T12:57:18;2.50;;;1.30;;
25479;SDS011;13393;49.378;8.686;2023-07-20T12:59:44;2.25;;;1.40;;
25479;SDS011;13393;49.378;8.686;2023-07-20T13:02:12;2.92;;;1.48;;
25479;SDS011;13393;49.378;8.686;2023-07-20T13:04:40;4.05;;;1.73;;
25479;SDS011;13393;49.378;8.686;2023-07-20T13:07:09;3.05;;;1.67;;
25479;SDS011;13393;49.378;8.686;2023-07-20T13:09:36;5.18;;;1.30;;
25479;SDS011;13393;49.378;8.686;2023-07-20T13:12:02;1.92;;;1.48;;
25479;SDS011;13393;49.378;8.686;2023-07-20T13:14:35;2.22;;;1.40;;
25479;SDS011;13393;49.378;8.686;2023-07-20T13:17:04;1.40;;;1.30;;
25479;SDS011;13393;49.378;8.686;2023-07-20T13:19:31;1.75;;;1.33;;
25479;SDS011;13393;49.378;8.686;2023-07-20T13:21:58;1.75;;;1.40;;
25479;SDS011;13393;49.378;8.686;2023-07-20T13:24:24;1.95;;;1.60;;
25479;SDS011;13393;49.378;8.686;2023-07-20T13:26:50;1.50;;;1.40;;
25479;SDS011;13393;49.378;8.686;2023-07-20T13:29:17;2.78;;;1.40;;
25479;SDS011;13393;49.378;8.686;2023-07-20T13:31:46;2.08;;;1.60;;
25479;SDS011;13393;49.378;8.686;2023-07-20T13:34:12;2.80;;;1.80;;
25479;SDS011;13393;49.378;8.686;2023-07-20T13:36:39;2.17;;;1.10;;
25479;SDS011;13393;49.378;8.686;2023-07-20T13:39:05;3.38;;;1.30;;
25479;SDS011;13393;49.378;8.686;2023-07-20T13:41:33;3.15;;;1.38;;
25479;SDS011;13393;49.378;8.686;2023-07-20T13:43:59;3.92;;;1.30;;
25479;SDS011;13393;49.378;8.686;2023-07-20T13:46:30;2.20;;;1.40;;
25479;SDS011;13393;49.378;8.686;2023-07-20T13:48:58;1.83;;;1.50;;
25479;SDS011;13393;49.378;8.686;2023-07-20T13:51:25;3.78;;;1.40;;
25479;SDS011;13393;49.378;8.686;2023-07-20T13:53:52;1.67;;;1.23;;
25479;SDS011;13393;49.378;8.686;2023-07-20T13:56:19;1.73;;;1.27;;
25479;SDS011;13393;49.378;8.686;2023-07-20T13:58:45;1.33;;;1.05;;
25479;SDS011;13393;49.378;8.686;2023-07-20T14:01:12;4.95;;;1.48;;
25479;SDS011;13393;49.378;8.686;2023-07-20T14:03:38;2.05;;;1.40;;
25479;SDS011;13393;49.378;8.686;2023-07-20T14:06:06;3.50;;;1.25;;
25479;SDS011;13393;49.378;8.686;2023-07-20T14:08:33;2.08;;;1.40;;
25479;SDS011;13393;49.378;8.686;2023-07-20T14:10:59;1.48;;;1.38;;
25479;SDS011;13393;49.378;8.686;2023-07-20T14:13:26;1.67;;;1.30;;
25479;SDS011;13393;49.378;8.686;2023-07-20T14:15:53;4.15;;;1.52;;
25479;SDS011;13393;49.378;8.686;2023-07-20T14:18:19;1.75;;;1.20;;
25479;SDS011;13393;49.378;8.686;2023-07-20T14:20:46;2.63;;;1.30;;
25479;SDS011;13393;49.378;8.686;2023-07-20T14:23:14;1.70;;;1.20;;
25479;SDS011;13393;49.378;8.686;2023-07-20T14:25:40;2.03;;;1.42;;
25479;SDS011;13393;49.378;8.686;2023-07-20T14:28:07;2.90;;;1.63;;
25479;SDS011;13393;49.378;8.686;2023-07-20T14:30:35;2.30;;;1.60;;
25479;SDS011;13393;49.378;8.686;2023-07-20T14:33:02;1.90;;;1.30;;
25479;SDS011;13393;49.378;8.686;2023-07-20T14:35:28;3.58;;;1.60;;
25479;SDS011;13393;49.378;8.686;2023-07-20T14:37:55;2.25;;;1.50;;
25479;SDS011;13393;49.378;8.686;2023-07-20T14:40:23;3.50;;;1.20;;
25479;SDS011;13393;49.378;8.686;2023-07-20T14:42:49;3.03;;;1.63;;
25479;SDS011;13393;49.378;8.686;2023-07-20T14:45:17;2.60;;;1.60;;
25479;SDS011;13393;49.378;8.686;2023-07-20T14:47:43;1.83;;;1.23;;
25479;SDS011;13393;49.378;8.686;2023-07-20T14:50:14;6.35;;;1.40;;
25479;SDS011;13393;49.378;8.686;2023-07-20T14:52:40;3.10;;;1.30;;
25479;SDS011;13393;49.378;8.686;2023-07-20T14:55:07;2.55;;;1.20;;